createdAt,value
2017-10-05T00:04:44.469Z,96154
2017-10-05T00:10:13.397Z,96152
2017-10-05T00:15:41.532Z,96147
2017-10-05T00:21:09.673Z,96143
2017-10-05T00:26:37.803Z,96134
2017-10-05T00:32:05.941Z,96139
2017-10-05T00:37:34.088Z,96129
2017-10-05T00:43:03.219Z,96125
2017-10-05T00:48:31.350Z,96118
2017-10-05T00:53:59.496Z,96099
2017-10-05T00:59:27.638Z,96091
2017-10-05T01:04:55.797Z,96087
2017-10-05T01:10:23.943Z,96068
2017-10-05T01:15:52.084Z,96056
2017-10-05T01:21:20.215Z,96041
2017-10-05T01:26:49.154Z,96039
2017-10-05T01:32:17.313Z,96029
2017-10-05T01:37:45.447Z,96025
2017-10-05T01:43:13.644Z,96020
2017-10-05T01:48:41.786Z,96012
2017-10-05T01:54:09.944Z,96003
2017-10-05T01:59:38.173Z,95991
2017-10-05T02:05:06.302Z,95982
2017-10-05T02:10:35.220Z,95986
2017-10-05T02:16:03.452Z,95972
2017-10-05T02:21:31.582Z,95956
2017-10-05T02:27:00.482Z,95952
2017-10-05T02:32:28.618Z,95932
2017-10-05T02:37:56.755Z,95935
2017-10-05T02:43:24.894Z,95926
2017-10-05T02:48:53.044Z,95922
2017-10-05T02:54:21.187Z,95914
2017-10-05T02:59:49.319Z,95909
2017-10-05T03:05:17.464Z,95897
2017-10-05T03:10:46.371Z,95892
2017-10-05T03:16:14.763Z,95887
2017-10-05T03:21:42.895Z,95856
2017-10-05T03:27:11.044Z,95838
2017-10-05T03:32:39.174Z,95835
2017-10-05T03:38:08.066Z,95829
2017-10-05T03:43:36.221Z,95825
2017-10-05T03:49:05.345Z,95812
2017-10-05T03:54:33.488Z,95800
2017-10-05T04:00:01.619Z,95783
2017-10-05T04:05:29.759Z,95770
2017-10-05T04:10:58.662Z,95766
2017-10-05T04:16:26.798Z,95746
2017-10-05T04:21:55.071Z,95738
2017-10-05T04:27:23.240Z,95739
2017-10-05T04:32:51.406Z,95725
2017-10-05T04:38:19.576Z,95719
2017-10-05T04:43:48.574Z,95722
2017-10-05T04:49:16.703Z,95708
2017-10-05T04:54:44.842Z,95701
2017-10-05T05:00:13.015Z,95691
2017-10-05T05:05:41.161Z,95680
2017-10-05T05:11:10.128Z,95686
2017-10-05T05:16:38.275Z,95676
2017-10-05T05:22:06.445Z,95678
2017-10-05T05:27:35.566Z,95674
2017-10-05T05:33:03.723Z,95664
2017-10-05T05:38:31.867Z,95648
2017-10-05T05:44:00.008Z,95647
2017-10-05T05:49:28.143Z,95649
2017-10-05T05:54:57.070Z,95653
2017-10-05T06:00:25.228Z,95648
2017-10-05T06:05:53.377Z,95641
2017-10-05T06:11:21.528Z,95645
2017-10-05T06:16:49.684Z,95640
2017-10-05T06:22:17.832Z,95636
2017-10-05T06:27:45.964Z,95633
2017-10-05T06:33:14.098Z,95627
2017-10-05T06:38:42.246Z,95613
2017-10-05T06:44:10.388Z,95612
2017-10-05T06:49:38.533Z,95610
2017-10-05T06:55:06.662Z,95605
2017-10-05T07:00:34.796Z,95607
2017-10-05T07:06:03.712Z,95599
2017-10-05T07:11:31.856Z,95602
2017-10-05T07:17:00.001Z,95602
2017-10-05T07:22:28.156Z,95588
2017-10-05T07:27:57.068Z,95583
2017-10-05T07:33:25.203Z,95575
2017-10-05T07:38:53.357Z,95574
2017-10-05T07:44:21.486Z,95558
2017-10-05T07:49:49.640Z,95561
2017-10-05T07:55:17.788Z,95563
2017-10-05T08:00:45.940Z,95562
2017-10-05T08:06:14.077Z,95541
2017-10-05T08:11:42.233Z,95550
2017-10-05T08:17:10.379Z,95539
2017-10-05T08:22:39.280Z,95533
2017-10-05T08:28:07.426Z,95529
2017-10-05T08:33:35.576Z,95511
2017-10-05T08:39:03.715Z,95502
2017-10-05T08:44:31.869Z,95493
2017-10-05T08:50:00.050Z,95496
2017-10-05T08:55:28.186Z,95487
2017-10-05T09:00:56.407Z,95491
2017-10-05T09:06:24.569Z,95480
2017-10-05T09:11:52.720Z,95458
2017-10-05T09:17:20.855Z,95469
2017-10-05T09:22:49.003Z,95463
2017-10-05T09:28:17.154Z,95446
2017-10-05T09:33:45.300Z,95435
2017-10-05T09:39:13.452Z,95442
2017-10-05T09:44:41.604Z,95439
2017-10-05T09:50:09.749Z,95431
2017-10-05T09:55:37.892Z,95422
2017-10-05T10:01:06.033Z,95437
2017-10-05T10:06:34.178Z,95434
2017-10-05T10:12:02.320Z,95403
2017-10-05T10:17:30.491Z,95391
2017-10-05T10:22:58.636Z,95389
2017-10-05T10:28:26.772Z,95392
2017-10-05T10:33:54.973Z,95364
2017-10-05T10:39:23.188Z,95371
2017-10-05T10:44:51.334Z,95351
2017-10-05T10:50:19.545Z,95357
2017-10-05T10:55:47.802Z,95358
2017-10-05T11:01:16.061Z,95358
2017-10-05T11:06:46.059Z,95363
2017-10-05T11:12:14.198Z,95342
2017-10-05T11:17:42.356Z,95332
2017-10-05T11:23:10.488Z,95317
2017-10-05T11:28:39.419Z,95303
2017-10-05T11:34:07.571Z,95314
2017-10-05T11:39:35.716Z,95300
2017-10-05T11:45:04.025Z,95297
2017-10-05T11:50:32.931Z,95273
2017-10-05T11:56:01.066Z,95293
2017-10-05T12:01:29.979Z,95290
2017-10-05T12:06:58.119Z,95242
2017-10-05T12:12:26.272Z,95269
2017-10-05T12:17:54.431Z,95256
2017-10-05T12:23:22.577Z,95250
2017-10-05T12:28:51.493Z,95210
2017-10-05T12:34:19.632Z,95233
2017-10-05T12:39:47.782Z,95220
2017-10-05T12:45:15.935Z,95210
2017-10-05T12:50:45.056Z,95179
2017-10-05T12:56:13.191Z,95205
2017-10-05T13:01:41.322Z,95211
2017-10-05T13:07:10.246Z,95196
2017-10-05T13:12:38.399Z,95174
2017-10-05T13:18:06.563Z,95183
2017-10-05T13:23:34.726Z,95162
2017-10-05T13:29:02.868Z,95154
2017-10-05T13:34:31.072Z,95129
2017-10-05T13:39:59.987Z,95131
2017-10-05T13:45:28.137Z,95113
2017-10-05T13:50:56.305Z,95097
2017-10-05T13:56:24.458Z,95103
2017-10-05T14:01:52.612Z,95062
2017-10-05T14:07:20.772Z,95046
2017-10-05T14:12:48.910Z,95089
2017-10-05T14:18:17.060Z,95053
2017-10-05T14:23:45.194Z,95056
2017-10-05T14:29:13.351Z,95101
2017-10-05T14:34:41.532Z,95115
2017-10-05T14:40:10.443Z,95103
2017-10-05T14:45:38.591Z,95050
2017-10-05T14:51:06.730Z,95050
2017-10-05T14:56:36.125Z,95075
2017-10-05T15:02:04.304Z,95079
2017-10-05T15:07:32.444Z,95097
2017-10-05T15:13:00.582Z,95099
2017-10-05T15:18:28.735Z,95121
2017-10-05T15:23:57.648Z,95082
2017-10-05T15:29:25.838Z,95103
2017-10-05T15:34:53.983Z,95105
2017-10-05T15:40:22.140Z,95110
2017-10-05T15:45:50.302Z,95103
2017-10-05T15:51:18.500Z,95106
2017-10-05T15:56:47.432Z,95109
2017-10-05T16:02:15.574Z,95141
2017-10-05T16:07:43.805Z,95126
2017-10-05T16:13:11.961Z,95155
2017-10-05T16:18:40.868Z,95154
2017-10-05T16:24:09.162Z,95178
2017-10-05T16:29:37.324Z,95187
2017-10-05T16:35:05.476Z,95170
2017-10-05T16:40:33.644Z,95177
2017-10-05T16:46:01.770Z,95195
2017-10-05T16:51:29.939Z,95211
2017-10-05T16:56:58.079Z,95211
2017-10-05T17:02:26.236Z,95220
2017-10-05T17:07:54.395Z,95227
2017-10-05T17:13:22.534Z,95245
2017-10-05T17:18:50.698Z,95257
2017-10-05T17:24:22.372Z,95280
2017-10-05T17:29:50.547Z,95264
2017-10-05T17:35:18.684Z,95271
2017-10-05T17:40:46.842Z,95292
2017-10-05T17:46:14.982Z,95310
2017-10-05T17:51:43.122Z,95327
2017-10-05T17:57:11.277Z,95349
2017-10-05T18:02:39.433Z,95357
2017-10-05T18:08:07.671Z,95359
2017-10-05T18:13:36.588Z,95369
2017-10-05T18:19:04.761Z,95372
2017-10-05T18:24:32.915Z,95384
2017-10-05T18:30:01.087Z,95400
2017-10-05T18:35:30.315Z,95392
2017-10-05T18:40:58.783Z,95389
2017-10-05T18:46:26.942Z,95407
2017-10-05T18:51:55.153Z,95414
2017-10-05T18:57:23.320Z,95416
2017-10-05T19:02:51.627Z,95430
2017-10-05T19:08:19.781Z,95421
2017-10-05T19:13:47.937Z,95427
2017-10-05T19:19:16.857Z,95448
2017-10-05T19:24:45.007Z,95502
2017-10-05T19:30:13.177Z,95514
2017-10-05T19:35:41.334Z,95529
2017-10-05T19:41:09.485Z,95529
2017-10-05T19:46:38.216Z,95535
2017-10-05T19:52:06.385Z,95537
2017-10-05T19:57:34.532Z,95551
2017-10-05T20:03:02.667Z,95554
2017-10-05T20:08:37.324Z,95548
2017-10-05T20:14:09.316Z,95568
2017-10-05T20:19:42.967Z,95579
2017-10-05T20:25:16.714Z,95584
2017-10-05T20:36:56.470Z,95589
2017-10-05T20:42:24.639Z,95589
2017-10-05T20:47:52.808Z,95594
2017-10-05T20:53:21.879Z,95592
2017-10-05T20:58:50.012Z,95588
2017-10-05T21:04:18.158Z,95597
2017-10-05T21:09:47.065Z,95611
2017-10-05T21:15:15.212Z,95609
2017-10-05T21:20:43.551Z,95618
2017-10-05T21:26:11.690Z,95621
2017-10-05T21:31:40.594Z,95622
2017-10-05T21:37:08.740Z,95622
2017-10-05T21:42:36.885Z,95614
2017-10-05T21:48:05.776Z,95600
2017-10-05T21:53:34.904Z,95623
2017-10-05T21:59:03.064Z,95616
2017-10-05T22:04:31.273Z,95628
2017-10-05T22:09:59.420Z,95610
2017-10-05T22:15:28.385Z,95626
2017-10-05T22:20:57.290Z,95626
2017-10-05T22:26:25.446Z,95665
2017-10-05T22:31:53.594Z,95683
2017-10-05T22:37:21.723Z,95689
2017-10-05T22:42:49.861Z,95697
2017-10-05T22:48:18.008Z,95699
2017-10-05T22:53:46.158Z,95642
2017-10-05T22:59:14.370Z,95659
2017-10-05T23:04:44.219Z,95709
2017-10-05T23:10:12.356Z,95610
2017-10-05T23:15:40.497Z,95665
2017-10-05T23:21:09.416Z,95685
2017-10-05T23:26:37.555Z,95692
2017-10-05T23:32:05.704Z,95663
2017-10-05T23:37:33.841Z,95680
2017-10-05T23:43:02.748Z,95672
2017-10-05T23:48:30.880Z,95703
2017-10-05T23:53:59.005Z,95722
2017-10-05T23:59:27.141Z,95742
